PWSweather.com
Personal Weather Stations
Station Observations
KTXPLANO70
Kemper Estates, Plano, TX

Kemper EstatesPlano, TX

Lat: 33.0674, Lon: -96.7659

Elevation: 737

Station Type: Davis Vantage Pro2

http://www.dallasdawg.com

Latest ConditionsUpdated 7:40:01 PM CST Wednesday, Jan 16, 2019
Currently Today's Max Today's Min Today's Average
Temperature 56.6°F13.7°C 62.1°F16.7°C 45.4°F7.4°C 51.4°F10.8°C
Dew Point 53.4°F11.9°C 54.2°F12.3°C 41.4°F5.2°C 47.7°F8.7°C
Winds 8.1 mph SE13.0 kmh SE 11.5 mph -18.5 kmh - - 4.6 mph 7.4 kmh
Wind Gusts 17.3 mph27.8 kmh 25.3 mph40.7 kmh - -
Humidity 89% 96% 75% 87%
Pressure 30.08 in1018.6 mb 30.26 in1024.7 mb 30.06 in1017.9 mb -
Hour Temp Dew Point Humidity Winds Wind Gusts Pressure Precip Precip Rate Daily Precip Total
07:40 PM 56.6°F13.7°C 53.4°F11.9°C 89% 8.1 mph SE13.0 kmh SE 17.3 mph27.8 kmh 30.08 in1018.6 mb - 0.00 in0.0 mm 0.00 in0.0 mm
07:35 PM 56.7°F13.7°C 53.5°F11.9°C 89% 5.8 mph S9.3 kmh S 10.4 mph16.7 kmh 30.08 in1018.6 mb - 0.00 in0.0 mm 0.00 in0.0 mm
07:30 PM 56.6°F13.7°C 53.4°F11.9°C 89% 5.8 mph S9.3 kmh S 11.5 mph18.5 kmh 30.07 in1018.3 mb - 0.00 in0.0 mm 0.00 in0.0 mm
07:25 PM 56.6°F13.7°C 53.4°F11.9°C 89% 9.2 mph SSE14.8 kmh SSE 17.3 mph27.8 kmh 30.07 in1018.3 mb - 0.00 in0.0 mm 0.00 in0.0 mm
07:20 PM 56.7°F13.7°C 53.2°F11.8°C 88% 8.1 mph SSE13.0 kmh SSE 15.0 mph24.1 kmh 30.07 in1018.3 mb - 0.00 in0.0 mm 0.00 in0.0 mm
07:15 PM 56.7°F13.7°C 53.2°F11.8°C 88% 10.4 mph S16.7 kmh S 18.4 mph29.6 kmh 30.08 in1018.6 mb - 0.00 in0.0 mm 0.00 in0.0 mm
07:10 PM 56.8°F13.8°C 53.6°F12.0°C 89% 6.9 mph S11.1 kmh S 8.1 mph13.0 kmh 30.07 in1018.3 mb - 0.00 in0.0 mm 0.00 in0.0 mm
07:00 PM 56.7°F13.7°C 53.2°F11.8°C 88% 6.9 mph S11.1 kmh S 18.4 mph29.6 kmh 30.08 in1018.6 mb - 0.00 in0.0 mm 0.00 in0.0 mm
06:55 PM 56.7°F13.7°C 53.2°F11.8°C 88% 6.9 mph SSE11.1 kmh SSE 10.4 mph16.7 kmh 30.08 in1018.6 mb - 0.00 in0.0 mm 0.00 in0.0 mm
06:50 PM 56.7°F13.7°C 53.1°F11.7°C 88% 8.1 mph SSE13.0 kmh SSE 13.8 mph22.2 kmh 30.07 in1018.3 mb - 0.00 in0.0 mm 0.00 in0.0 mm
06:45 PM 56.6°F13.7°C 53.1°F11.7°C 88% 8.1 mph S13.0 kmh S 15.0 mph24.1 kmh 30.07 in1018.3 mb - 0.00 in0.0 mm 0.00 in0.0 mm
06:40 PM 56.6°F13.7°C 53.1°F11.7°C 88% 8.1 mph S13.0 kmh S 11.5 mph18.5 kmh 30.07 in1018.3 mb - 0.00 in0.0 mm 0.00 in0.0 mm
06:35 PM 56.6°F13.7°C 53.1°F11.7°C 88% 10.4 mph SSE16.7 kmh SSE 15.0 mph24.1 kmh 30.07 in1018.3 mb - 0.00 in0.0 mm 0.00 in0.0 mm
06:30 PM 56.7°F13.7°C 52.8°F11.6°C 87% 4.6 mph SSE7.4 kmh SSE 13.8 mph22.2 kmh 30.07 in1018.3 mb - 0.00 in0.0 mm 0.00 in0.0 mm
06:25 PM 56.7°F13.7°C 52.9°F11.6°C 87% 4.6 mph SSE7.4 kmh SSE 6.9 mph11.1 kmh 30.07 in1018.3 mb - 0.00 in0.0 mm 0.00 in0.0 mm
06:20 PM 56.8°F13.8°C 53.0°F11.7°C 87% 4.6 mph SSE7.4 kmh SSE 9.2 mph14.8 kmh 30.07 in1018.3 mb - 0.00 in0.0 mm 0.00 in0.0 mm
06:15 PM 56.9°F13.8°C 53.1°F11.7°C 87% 5.8 mph SSE9.3 kmh SSE 9.2 mph14.8 kmh 30.08 in1018.6 mb - 0.00 in0.0 mm 0.00 in0.0 mm
06:10 PM 57.0°F13.9°C 53.2°F11.8°C 87% 11.5 mph S18.5 kmh S 13.8 mph22.2 kmh 30.08 in1018.6 mb - 0.00 in0.0 mm 0.00 in0.0 mm
06:00 PM 57.1°F13.9°C 52.9°F11.6°C 86% 6.9 mph SE11.1 kmh SE 13.8 mph22.2 kmh 30.07 in1018.3 mb - 0.00 in0.0 mm 0.00 in0.0 mm
05:55 PM 57.3°F14.1°C 53.1°F11.7°C 86% 8.1 mph SSE13.0 kmh SSE 11.5 mph18.5 kmh 30.06 in1017.9 mb - 0.00 in0.0 mm 0.00 in0.0 mm
05:50 PM 57.5°F14.2°C 53.3°F11.8°C 86% 8.1 mph SE13.0 kmh SE 15.0 mph24.1 kmh 30.06 in1017.9 mb - 0.00 in0.0 mm 0.00 in0.0 mm
05:45 PM 57.6°F14.2°C 53.2°F11.8°C 85% 8.1 mph SSE13.0 kmh SSE 13.8 mph22.2 kmh 30.06 in1017.9 mb - 0.00 in0.0 mm 0.00 in0.0 mm
05:40 PM 57.8°F14.3°C 53.3°F11.8°C 85% 6.9 mph SSE11.1 kmh SSE 13.8 mph22.2 kmh 30.07 in1018.3 mb - 0.00 in0.0 mm 0.00 in0.0 mm
05:35 PM 57.9°F14.4°C 53.4°F11.9°C 85% 8.1 mph SSE13.0 kmh SSE 15.0 mph24.1 kmh 30.07 in1018.3 mb - 0.00 in0.0 mm 0.00 in0.0 mm
05:30 PM 58.1°F14.5°C 53.3°F11.8°C 84% 6.9 mph S11.1 kmh S 13.8 mph22.2 kmh 30.07 in1018.3 mb - 0.00 in0.0 mm 0.00 in0.0 mm
05:25 PM 58.3°F14.6°C 53.5°F11.9°C 84% 6.9 mph SSE11.1 kmh SSE 13.8 mph22.2 kmh 30.06 in1017.9 mb - 0.00 in0.0 mm 0.00 in0.0 mm
05:20 PM 58.6°F14.8°C 53.5°F11.9°C 83% 6.9 mph SE11.1 kmh SE 12.7 mph20.4 kmh 30.06 in1017.9 mb - 0.00 in0.0 mm 0.00 in0.0 mm
05:15 PM 58.9°F14.9°C 53.4°F11.9°C 82% 5.8 mph SE9.3 kmh SE 13.8 mph22.2 kmh 30.06 in1017.9 mb - 0.00 in0.0 mm 0.00 in0.0 mm
05:10 PM 59.1°F15.1°C 53.7°F12.1°C 82% 4.6 mph SE7.4 kmh SE 10.4 mph16.7 kmh 30.06 in1017.9 mb - 0.00 in0.0 mm 0.00 in0.0 mm
05:00 PM 59.5°F15.3°C 53.7°F12.1°C 81% 5.8 mph S9.3 kmh S 9.2 mph14.8 kmh 30.07 in1018.3 mb - 0.00 in0.0 mm 0.00 in0.0 mm
04:55 PM 59.6°F15.3°C 53.4°F11.9°C 80% 6.9 mph SE11.1 kmh SE 19.6 mph31.5 kmh 30.07 in1018.3 mb - 0.00 in0.0 mm 0.00 in0.0 mm
04:50 PM 59.8°F15.4°C 53.6°F12.0°C 80% 8.1 mph SE13.0 kmh SE 15.0 mph24.1 kmh 30.07 in1018.3 mb - 0.00 in0.0 mm 0.00 in0.0 mm
04:45 PM 60.0°F15.6°C 53.8°F12.1°C 80% 5.8 mph SSE9.3 kmh SSE 15.0 mph24.1 kmh 30.07 in1018.3 mb - 0.00 in0.0 mm 0.00 in0.0 mm
04:40 PM 60.1°F15.6°C 53.6°F12.0°C 79% 6.9 mph SE11.1 kmh SE 9.2 mph14.8 kmh 30.07 in1018.3 mb - 0.00 in0.0 mm 0.00 in0.0 mm
04:35 PM 60.4°F15.8°C 53.9°F12.2°C 79% 5.8 mph SE9.3 kmh SE 15.0 mph24.1 kmh 30.07 in1018.3 mb - 0.00 in0.0 mm 0.00 in0.0 mm
04:30 PM 60.5°F15.8°C 53.6°F12.0°C 78% 6.9 mph SSE11.1 kmh SSE 12.7 mph20.4 kmh 30.07 in1018.3 mb - 0.00 in0.0 mm 0.00 in0.0 mm
04:25 PM 60.7°F15.9°C 53.8°F12.1°C 78% 5.8 mph S9.3 kmh S 8.1 mph13.0 kmh 30.07 in1018.3 mb - 0.00 in0.0 mm 0.00 in0.0 mm
04:20 PM 61.1°F16.2°C 53.8°F12.1°C 77% 9.2 mph S14.8 kmh S 12.7 mph20.4 kmh 30.08 in1018.6 mb - 0.00 in0.0 mm 0.00 in0.0 mm
04:15 PM 61.3°F16.3°C 54.0°F12.2°C 77% 4.6 mph SSE7.4 kmh SSE 6.9 mph11.1 kmh 30.08 in1018.6 mb - 0.00 in0.0 mm 0.00 in0.0 mm
04:10 PM 61.5°F16.4°C 54.2°F12.3°C 77% 8.1 mph SSE13.0 kmh SSE 13.8 mph22.2 kmh 30.08 in1018.6 mb - 0.00 in0.0 mm 0.00 in0.0 mm
04:00 PM 61.4°F16.3°C 54.1°F12.3°C 77% 4.6 mph S7.4 kmh S 11.5 mph18.5 kmh 30.08 in1018.6 mb - 0.00 in0.0 mm 0.00 in0.0 mm
03:55 PM 61.5°F16.4°C 53.8°F12.1°C 76% 6.9 mph SE11.1 kmh SE 10.4 mph16.7 kmh 30.08 in1018.6 mb - 0.00 in0.0 mm 0.00 in0.0 mm
03:50 PM 61.5°F16.4°C 53.9°F12.2°C 76% 4.6 mph SE7.4 kmh SE 8.1 mph13.0 kmh 30.08 in1018.6 mb - 0.00 in0.0 mm 0.00 in0.0 mm
03:45 PM 61.5°F16.4°C 54.2°F12.3°C 77% 6.9 mph SE11.1 kmh SE 11.5 mph18.5 kmh 30.08 in1018.6 mb - 0.00 in0.0 mm 0.00 in0.0 mm
03:40 PM 61.7°F16.5°C 54.1°F12.3°C 76% 5.8 mph SSE9.3 kmh SSE 11.5 mph18.5 kmh 30.08 in1018.6 mb - 0.00 in0.0 mm 0.00 in0.0 mm
03:35 PM 62.1°F16.7°C 54.1°F12.3°C 75% 4.6 mph SSE7.4 kmh SSE 10.4 mph16.7 kmh 30.09 in1019.0 mb - 0.00 in0.0 mm 0.00 in0.0 mm
03:30 PM 62.0°F16.7°C 54.0°F12.2°C 75% 9.2 mph SSE14.8 kmh SSE 18.4 mph29.6 kmh 30.09 in1019.0 mb - 0.00 in0.0 mm 0.00 in0.0 mm
03:25 PM 61.7°F16.5°C 54.0°F12.2°C 76% 5.8 mph S9.3 kmh S 12.7 mph20.4 kmh 30.09 in1019.0 mb - 0.00 in0.0 mm 0.00 in0.0 mm
03:20 PM 61.4°F16.3°C 53.8°F12.1°C 76% 6.9 mph SE11.1 kmh SE 15.0 mph24.1 kmh 30.09 in1019.0 mb - 0.00 in0.0 mm 0.00 in0.0 mm
03:15 PM 61.1°F16.2°C 53.8°F12.1°C 77% 8.1 mph S13.0 kmh S 13.8 mph22.2 kmh 30.09 in1019.0 mb - 0.00 in0.0 mm 0.00 in0.0 mm
03:10 PM 60.7°F15.9°C 53.5°F11.9°C 77% 6.9 mph SSE11.1 kmh SSE 11.5 mph18.5 kmh 30.10 in1019.3 mb - 0.00 in0.0 mm 0.00 in0.0 mm
03:00 PM 60.5°F15.8°C 53.2°F11.8°C 77% 4.6 mph S7.4 kmh S 9.2 mph14.8 kmh 30.10 in1019.3 mb - 0.00 in0.0 mm 0.00 in0.0 mm
02:55 PM 60.8°F16.0°C 53.5°F11.9°C 77% 6.9 mph S11.1 kmh S 13.8 mph22.2 kmh 30.10 in1019.3 mb - 0.00 in0.0 mm 0.00 in0.0 mm
02:50 PM 60.5°F15.8°C 53.3°F11.8°C 77% 5.8 mph SSE9.3 kmh SSE 12.7 mph20.4 kmh 30.10 in1019.3 mb - 0.00 in0.0 mm 0.00 in0.0 mm
02:45 PM 60.3°F15.7°C 53.1°F11.7°C 77% 8.1 mph SSE13.0 kmh SSE 11.5 mph18.5 kmh 30.11 in1019.6 mb - 0.00 in0.0 mm 0.00 in0.0 mm
02:40 PM 61.0°F16.1°C 53.4°F11.9°C 76% 10.4 mph S16.7 kmh S 17.3 mph27.8 kmh 30.11 in1019.6 mb - 0.00 in0.0 mm 0.00 in0.0 mm
02:35 PM 61.3°F16.3°C 53.7°F12.1°C 76% 9.2 mph S14.8 kmh S 13.8 mph22.2 kmh 30.11 in1019.6 mb - 0.00 in0.0 mm 0.00 in0.0 mm
02:30 PM 60.8°F16.0°C 53.5°F11.9°C 77% 8.1 mph S13.0 kmh S 13.8 mph22.2 kmh 30.11 in1019.6 mb - 0.00 in0.0 mm 0.00 in0.0 mm
02:25 PM 59.8°F15.4°C 53.3°F11.8°C 79% 8.1 mph SSW13.0 kmh SSW 21.9 mph35.2 kmh 30.11 in1019.6 mb - 0.00 in0.0 mm 0.00 in0.0 mm
02:20 PM 59.6°F15.3°C 53.0°F11.7°C 79% 8.1 mph S13.0 kmh S 25.3 mph40.7 kmh 30.11 in1019.6 mb - 0.00 in0.0 mm 0.00 in0.0 mm
02:15 PM 59.3°F15.2°C 52.8°F11.6°C 79% 8.1 mph S13.0 kmh S 11.5 mph18.5 kmh 30.11 in1019.6 mb - 0.00 in0.0 mm 0.00 in0.0 mm
02:10 PM 58.7°F14.8°C 52.5°F11.4°C 80% 8.1 mph S13.0 kmh S 11.5 mph18.5 kmh 30.11 in1019.6 mb - 0.00 in0.0 mm 0.00 in0.0 mm
02:00 PM 58.0°F14.4°C 52.5°F11.4°C 82% 8.1 mph S13.0 kmh S 9.2 mph14.8 kmh 30.12 in1020.0 mb - 0.00 in0.0 mm 0.00 in0.0 mm
01:55 PM 57.6°F14.2°C 52.5°F11.4°C 83% 8.1 mph S13.0 kmh S 15.0 mph24.1 kmh 30.12 in1020.0 mb - 0.00 in0.0 mm 0.00 in0.0 mm
01:50 PM 57.2°F14.0°C 52.1°F11.2°C 83% 6.9 mph S11.1 kmh S 13.8 mph22.2 kmh 30.12 in1020.0 mb - 0.00 in0.0 mm 0.00 in0.0 mm
01:45 PM 56.7°F13.7°C 51.9°F11.1°C 84% 6.9 mph S11.1 kmh S 11.5 mph18.5 kmh 30.13 in1020.3 mb - 0.00 in0.0 mm 0.00 in0.0 mm
01:40 PM 56.4°F13.6°C 51.6°F10.9°C 84% 5.8 mph SSE9.3 kmh SSE 9.2 mph14.8 kmh 30.13 in1020.3 mb - 0.00 in0.0 mm 0.00 in0.0 mm
01:35 PM 56.2°F13.4°C 51.7°F10.9°C 85% 5.8 mph SSE9.3 kmh SSE 9.2 mph14.8 kmh 30.14 in1020.7 mb - 0.00 in0.0 mm 0.00 in0.0 mm
01:30 PM 56.0°F13.3°C 51.5°F10.8°C 85% 4.6 mph S7.4 kmh S 6.9 mph11.1 kmh 30.14 in1020.7 mb - 0.00 in0.0 mm 0.00 in0.0 mm
01:25 PM 55.7°F13.2°C 51.3°F10.7°C 85% 4.6 mph S7.4 kmh S 5.8 mph9.3 kmh 30.14 in1020.7 mb - 0.00 in0.0 mm 0.00 in0.0 mm
01:20 PM 55.5°F13.1°C 51.4°F10.8°C 86% 5.8 mph S9.3 kmh S 11.5 mph18.5 kmh 30.15 in1021.0 mb - 0.00 in0.0 mm 0.00 in0.0 mm
01:15 PM 55.3°F12.9°C 51.2°F10.7°C 86% 2.3 mph SSE3.7 kmh SSE 9.2 mph14.8 kmh 30.15 in1021.0 mb - 0.00 in0.0 mm 0.00 in0.0 mm
01:10 PM 55.3°F12.9°C 51.1°F10.6°C 86% 5.8 mph SSE9.3 kmh SSE 10.4 mph16.7 kmh 30.15 in1021.0 mb - 0.00 in0.0 mm 0.00 in0.0 mm
01:00 PM 54.8°F12.7°C 51.0°F10.6°C 87% 5.8 mph S9.3 kmh S 11.5 mph18.5 kmh 30.16 in1021.3 mb - 0.00 in0.0 mm 0.00 in0.0 mm
12:55 PM 54.6°F12.6°C 50.8°F10.4°C 87% 4.6 mph S7.4 kmh S 8.1 mph13.0 kmh 30.17 in1021.7 mb - 0.00 in0.0 mm 0.00 in0.0 mm
12:50 PM 54.6°F12.6°C 51.1°F10.6°C 88% 5.8 mph SSE9.3 kmh SSE 10.4 mph16.7 kmh 30.17 in1021.7 mb - 0.00 in0.0 mm 0.00 in0.0 mm
12:45 PM 54.4°F12.4°C 50.9°F10.5°C 88% 4.6 mph S7.4 kmh S 8.1 mph13.0 kmh 30.17 in1021.7 mb - 0.00 in0.0 mm 0.00 in0.0 mm
12:40 PM 54.3°F12.4°C 50.8°F10.4°C 88% 8.1 mph SSE13.0 kmh SSE 11.5 mph18.5 kmh 30.17 in1021.7 mb - 0.00 in0.0 mm 0.00 in0.0 mm
12:35 PM 54.1°F12.3°C 50.9°F10.5°C 89% 4.6 mph SSE7.4 kmh SSE 8.1 mph13.0 kmh 30.18 in1022.0 mb - 0.00 in0.0 mm 0.00 in0.0 mm
12:30 PM 53.8°F12.1°C 50.9°F10.5°C 90% 6.9 mph SSE11.1 kmh SSE 12.7 mph20.4 kmh 30.18 in1022.0 mb - 0.00 in0.0 mm 0.00 in0.0 mm
12:25 PM 53.6°F12.0°C 51.0°F10.6°C 91% 5.8 mph S9.3 kmh S 8.1 mph13.0 kmh 30.19 in1022.4 mb - 0.00 in0.0 mm 0.00 in0.0 mm
12:20 PM 53.3°F11.8°C 50.7°F10.4°C 91% 3.5 mph SSE5.6 kmh SSE 4.6 mph7.4 kmh 30.19 in1022.4 mb - 0.00 in0.0 mm 0.00 in0.0 mm
12:15 PM 52.9°F11.6°C 50.6°F10.3°C 92% 4.6 mph SSE7.4 kmh SSE 9.2 mph14.8 kmh 30.20 in1022.7 mb - 0.00 in0.0 mm 0.00 in0.0 mm
12:10 PM 52.7°F11.5°C 50.5°F10.3°C 92% 3.5 mph SSE5.6 kmh SSE 10.4 mph16.7 kmh 30.21 in1023.0 mb - 0.00 in0.0 mm 0.00 in0.0 mm
12:00 PM 52.8°F11.6°C 50.5°F10.3°C 92% 4.6 mph SE7.4 kmh SE 8.1 mph13.0 kmh 30.21 in1023.0 mb - 0.00 in0.0 mm 0.00 in0.0 mm
11:55 AM 53.0°F11.7°C 50.7°F10.4°C 92% 2.3 mph SE3.7 kmh SE 4.6 mph7.4 kmh 30.21 in1023.0 mb - 0.00 in0.0 mm 0.00 in0.0 mm
11:50 AM 53.0°F11.7°C 50.7°F10.4°C 92% 3.5 mph S5.6 kmh S 8.1 mph13.0 kmh 30.22 in1023.4 mb - 0.00 in0.0 mm 0.00 in0.0 mm
11:45 AM 52.7°F11.5°C 50.8°F10.4°C 93% 4.6 mph SSE7.4 kmh SSE 5.8 mph9.3 kmh 30.22 in1023.4 mb - 0.00 in0.0 mm 0.00 in0.0 mm
11:40 AM 52.4°F11.3°C 50.7°F10.4°C 94% 5.8 mph S9.3 kmh S 10.4 mph16.7 kmh 30.22 in1023.4 mb - 0.00 in0.0 mm 0.00 in0.0 mm
11:35 AM 52.1°F11.2°C 50.4°F10.2°C 94% 4.6 mph SSE7.4 kmh SSE 10.4 mph16.7 kmh 30.22 in1023.4 mb - 0.00 in0.0 mm 0.00 in0.0 mm
11:30 AM 51.9°F11.1°C 50.5°F10.3°C 95% 4.6 mph S7.4 kmh S 6.9 mph11.1 kmh 30.23 in1023.7 mb - 0.00 in0.0 mm 0.00 in0.0 mm
11:25 AM 51.5°F10.8°C 50.1°F10.1°C 95% 3.5 mph S5.6 kmh S 6.9 mph11.1 kmh 30.23 in1023.7 mb - 0.00 in0.0 mm 0.00 in0.0 mm
11:20 AM 51.3°F10.7°C 49.9°F9.9°C 95% 4.6 mph SSW7.4 kmh SSW 8.1 mph13.0 kmh 30.23 in1023.7 mb - 0.00 in0.0 mm 0.00 in0.0 mm
11:15 AM 51.0°F10.6°C 49.9°F9.9°C 96% 4.6 mph S7.4 kmh S 6.9 mph11.1 kmh 30.23 in1023.7 mb - 0.00 in0.0 mm 0.00 in0.0 mm
11:10 AM 50.6°F10.3°C 49.5°F9.7°C 96% 3.5 mph S5.6 kmh S 5.8 mph9.3 kmh 30.23 in1023.7 mb - 0.00 in0.0 mm 0.00 in0.0 mm
11:00 AM 50.3°F10.2°C 49.2°F9.6°C 96% 2.3 mph SSE3.7 kmh SSE 3.5 mph5.6 kmh 30.24 in1024.0 mb - 0.00 in0.0 mm 0.00 in0.0 mm
10:55 AM 50.1°F10.1°C 49.0°F9.4°C 96% 2.3 mph SSE3.7 kmh SSE 3.5 mph5.6 kmh 30.24 in1024.0 mb - 0.00 in0.0 mm 0.00 in0.0 mm
10:50 AM 49.9°F9.9°C 48.8°F9.3°C 96% 2.3 mph S3.7 kmh S 4.6 mph7.4 kmh 30.24 in1024.0 mb - 0.00 in0.0 mm 0.00 in0.0 mm
10:45 AM 49.8°F9.9°C 48.7°F9.3°C 96% 3.5 mph SSE5.6 kmh SSE 4.6 mph7.4 kmh 30.24 in1024.0 mb - 0.00 in0.0 mm 0.00 in0.0 mm
10:40 AM 49.6°F9.8°C 48.5°F9.2°C 96% 3.5 mph S5.6 kmh S 3.5 mph5.6 kmh 30.24 in1024.0 mb - 0.00 in0.0 mm 0.00 in0.0 mm
10:35 AM 49.4°F9.7°C 48.3°F9.1°C 96% 2.3 mph SE3.7 kmh SE 4.6 mph7.4 kmh 30.24 in1024.0 mb - 0.00 in0.0 mm 0.00 in0.0 mm
10:30 AM 49.1°F9.5°C 48.0°F8.9°C 96% 2.3 mph SSE3.7 kmh SSE 3.5 mph5.6 kmh 30.24 in1024.0 mb - 0.00 in0.0 mm 0.00 in0.0 mm
10:25 AM 49.1°F9.5°C 48.0°F8.9°C 96% 5.8 mph SSE9.3 kmh SSE 9.2 mph14.8 kmh 30.24 in1024.0 mb - 0.00 in0.0 mm 0.00 in0.0 mm
10:20 AM 48.9°F9.4°C 47.8°F8.8°C 96% 2.3 mph SE3.7 kmh SE 3.5 mph5.6 kmh 30.24 in1024.0 mb - 0.00 in0.0 mm 0.00 in0.0 mm
10:15 AM 48.7°F9.3°C 47.6°F8.7°C 96% 4.6 mph SSE7.4 kmh SSE 5.8 mph9.3 kmh 30.24 in1024.0 mb - 0.00 in0.0 mm 0.00 in0.0 mm
10:10 AM 48.5°F9.2°C 47.4°F8.6°C 96% 2.3 mph SSE3.7 kmh SSE 4.6 mph7.4 kmh 30.24 in1024.0 mb - 0.00 in0.0 mm 0.00 in0.0 mm
10:00 AM 48.1°F8.9°C 47.0°F8.3°C 96% 2.3 mph SSE3.7 kmh SSE 3.5 mph5.6 kmh 30.24 in1024.0 mb - 0.00 in0.0 mm 0.00 in0.0 mm
09:55 AM 47.9°F8.8°C 46.8°F8.2°C 96% 3.5 mph SE5.6 kmh SE 3.5 mph5.6 kmh 30.24 in1024.0 mb - 0.00 in0.0 mm 0.00 in0.0 mm
09:50 AM 47.9°F8.8°C 46.8°F8.2°C 96% 2.3 mph SE3.7 kmh SE 3.5 mph5.6 kmh 30.24 in1024.0 mb - 0.00 in0.0 mm 0.00 in0.0 mm
09:45 AM 47.8°F8.8°C 46.7°F8.2°C 96% 3.5 mph SSE5.6 kmh SSE 4.6 mph7.4 kmh 30.24 in1024.0 mb - 0.00 in0.0 mm 0.00 in0.0 mm
09:40 AM 47.7°F8.7°C 46.3°F7.9°C 95% 3.5 mph SSE5.6 kmh SSE 5.8 mph9.3 kmh 30.24 in1024.0 mb - 0.00 in0.0 mm 0.00 in0.0 mm
09:35 AM 47.6°F8.7°C 46.2°F7.9°C 95% 2.3 mph SE3.7 kmh SE 4.6 mph7.4 kmh 30.23 in1023.7 mb - 0.00 in0.0 mm 0.00 in0.0 mm
09:30 AM 47.7°F8.7°C 46.6°F8.1°C 96% 2.3 mph SSE3.7 kmh SSE 9.2 mph14.8 kmh 30.23 in1023.7 mb - 0.00 in0.0 mm 0.00 in0.0 mm
09:25 AM 47.4°F8.6°C 46.3°F7.9°C 96% 3.5 mph SSE5.6 kmh SSE 5.8 mph9.3 kmh 30.23 in1023.7 mb - 0.00 in0.0 mm 0.00 in0.0 mm
09:20 AM 47.5°F8.6°C 46.4°F8.0°C 96% 2.3 mph SE3.7 kmh SE 6.9 mph11.1 kmh 30.23 in1023.7 mb - 0.00 in0.0 mm 0.00 in0.0 mm
09:15 AM 47.2°F8.4°C 45.8°F7.7°C 95% 2.3 mph ESE3.7 kmh ESE 3.5 mph5.6 kmh 30.23 in1023.7 mb - 0.00 in0.0 mm 0.00 in0.0 mm
09:10 AM 47.0°F8.3°C 45.6°F7.6°C 95% 2.3 mph SE3.7 kmh SE 3.5 mph5.6 kmh 30.23 in1023.7 mb - 0.00 in0.0 mm 0.00 in0.0 mm
09:00 AM 46.7°F8.2°C 45.3°F7.4°C 95% 2.3 mph SE3.7 kmh SE 3.5 mph5.6 kmh 30.23 in1023.7 mb - 0.00 in0.0 mm 0.00 in0.0 mm
08:55 AM 46.6°F8.1°C 45.2°F7.3°C 95% 2.3 mph SE3.7 kmh SE 3.5 mph5.6 kmh 30.23 in1023.7 mb - 0.00 in0.0 mm 0.00 in0.0 mm
08:50 AM 46.5°F8.1°C 45.2°F7.3°C 95% 2.3 mph E3.7 kmh E 3.5 mph5.6 kmh 30.23 in1023.7 mb - 0.00 in0.0 mm 0.00 in0.0 mm
08:45 AM 46.5°F8.1°C 45.2°F7.3°C 95% 3.5 mph SE5.6 kmh SE 3.5 mph5.6 kmh 30.23 in1023.7 mb - 0.00 in0.0 mm 0.00 in0.0 mm
08:40 AM 46.5°F8.1°C 45.2°F7.3°C 95% 2.3 mph SE3.7 kmh SE 5.8 mph9.3 kmh 30.23 in1023.7 mb - 0.00 in0.0 mm 0.00 in0.0 mm
08:35 AM 46.6°F8.1°C 45.2°F7.3°C 95% 3.5 mph SE5.6 kmh SE 4.6 mph7.4 kmh 30.23 in1023.7 mb - 0.00 in0.0 mm 0.00 in0.0 mm
08:30 AM 46.7°F8.2°C 45.1°F7.3°C 94% 2.3 mph SE3.7 kmh SE 4.6 mph7.4 kmh 30.23 in1023.7 mb - 0.00 in0.0 mm 0.00 in0.0 mm
08:25 AM 47.1°F8.4°C 45.5°F7.5°C 94% 3.5 mph SE5.6 kmh SE 6.9 mph11.1 kmh 30.22 in1023.4 mb - 0.00 in0.0 mm 0.00 in0.0 mm
08:20 AM 47.3°F8.5°C 45.9°F7.7°C 95% 3.5 mph SSE5.6 kmh SSE 2.3 mph3.7 kmh 30.23 in1023.7 mb - 0.00 in0.0 mm 0.00 in0.0 mm
08:15 AM 47.2°F8.4°C 45.8°F7.7°C 95% 3.5 mph SSE5.6 kmh SSE 3.5 mph5.6 kmh 30.23 in1023.7 mb - 0.00 in0.0 mm 0.00 in0.0 mm
08:10 AM 47.2°F8.4°C 45.6°F7.6°C 94% 2.3 mph S3.7 kmh S 3.5 mph5.6 kmh 30.23 in1023.7 mb - 0.00 in0.0 mm 0.00 in0.0 mm
08:00 AM 47.0°F8.3°C 45.6°F7.6°C 95% 2.3 mph SE3.7 kmh SE 3.5 mph5.6 kmh 30.23 in1023.7 mb - 0.00 in0.0 mm 0.00 in0.0 mm
07:55 AM 46.9°F8.3°C 45.3°F7.4°C 94% 2.3 mph SSE3.7 kmh SSE 4.6 mph7.4 kmh 30.23 in1023.7 mb - 0.00 in0.0 mm 0.00 in0.0 mm
07:50 AM 46.9°F8.3°C 45.2°F7.3°C 94% 2.3 mph SSE3.7 kmh SSE 4.6 mph7.4 kmh 30.23 in1023.7 mb - 0.00 in0.0 mm 0.00 in0.0 mm
07:45 AM 46.8°F8.2°C 45.2°F7.3°C 94% 2.3 mph S3.7 kmh S 3.5 mph5.6 kmh 30.23 in1023.7 mb - 0.00 in0.0 mm 0.00 in0.0 mm
07:40 AM 46.7°F8.2°C 45.1°F7.3°C 94% 1.2 mph SE1.9 kmh SE 3.5 mph5.6 kmh 30.23 in1023.7 mb - 0.00 in0.0 mm 0.00 in0.0 mm
07:35 AM 46.7°F8.2°C 45.1°F7.3°C 94% Calm Calm 1.2 mph1.9 kmh 30.23 in1023.7 mb - 0.00 in0.0 mm 0.00 in0.0 mm
07:30 AM 46.7°F8.2°C 45.0°F7.2°C 94% 2.3 mph SSE3.7 kmh SSE 5.8 mph9.3 kmh 30.23 in1023.7 mb - 0.00 in0.0 mm 0.00 in0.0 mm
07:25 AM 46.6°F8.1°C 45.0°F7.2°C 94% 2.3 mph S3.7 kmh S 4.6 mph7.4 kmh 30.23 in1023.7 mb - 0.00 in0.0 mm 0.00 in0.0 mm
07:20 AM 46.6°F8.1°C 45.0°F7.2°C 94% 3.5 mph SSE5.6 kmh SSE 4.6 mph7.4 kmh 30.23 in1023.7 mb - 0.00 in0.0 mm 0.00 in0.0 mm
07:15 AM 46.5°F8.1°C 44.9°F7.2°C 94% 2.3 mph SSE3.7 kmh SSE 3.5 mph5.6 kmh 30.23 in1023.7 mb - 0.00 in0.0 mm 0.00 in0.0 mm
07:10 AM 46.4°F8.0°C 44.5°F6.9°C 93% 2.3 mph S3.7 kmh S 3.5 mph5.6 kmh 30.23 in1023.7 mb - 0.00 in0.0 mm 0.00 in0.0 mm
07:00 AM 46.3°F7.9°C 44.4°F6.9°C 93% 1.2 mph S1.9 kmh S 1.2 mph1.9 kmh 30.23 in1023.7 mb - 0.00 in0.0 mm 0.00 in0.0 mm
06:55 AM 46.2°F7.9°C 44.3°F6.8°C 93% 1.2 mph SSE1.9 kmh SSE 3.5 mph5.6 kmh 30.23 in1023.7 mb - 0.00 in0.0 mm 0.00 in0.0 mm
06:50 AM 46.2°F7.9°C 44.3°F6.8°C 93% 2.3 mph S3.7 kmh S 4.6 mph7.4 kmh 30.23 in1023.7 mb - 0.00 in0.0 mm 0.00 in0.0 mm
06:45 AM 46.1°F7.8°C 43.9°F6.6°C 92% 1.2 mph SSE1.9 kmh SSE 3.5 mph5.6 kmh 30.22 in1023.4 mb - 0.00 in0.0 mm 0.00 in0.0 mm
06:40 AM 46.1°F7.8°C 43.9°F6.6°C 92% 2.3 mph SSE3.7 kmh SSE 4.6 mph7.4 kmh 30.22 in1023.4 mb - 0.00 in0.0 mm 0.00 in0.0 mm
06:35 AM 46.0°F7.8°C 43.6°F6.4°C 91% 1.2 mph SE1.9 kmh SE 3.5 mph5.6 kmh 30.22 in1023.4 mb - 0.00 in0.0 mm 0.00 in0.0 mm
06:30 AM 46.0°F7.8°C 43.5°F6.4°C 91% 3.5 mph SSE5.6 kmh SSE 4.6 mph7.4 kmh 30.22 in1023.4 mb - 0.00 in0.0 mm 0.00 in0.0 mm
06:25 AM 45.9°F7.7°C 43.4°F6.3°C 91% 2.3 mph SSE3.7 kmh SSE 3.5 mph5.6 kmh 30.21 in1023.0 mb - 0.00 in0.0 mm 0.00 in0.0 mm
06:20 AM 45.9°F7.7°C 43.1°F6.2°C 90% 2.3 mph S3.7 kmh S 3.5 mph5.6 kmh 30.22 in1023.4 mb - 0.00 in0.0 mm 0.00 in0.0 mm
06:15 AM 45.8°F7.7°C 43.0°F6.1°C 90% 2.3 mph SSE3.7 kmh SSE 3.5 mph5.6 kmh 30.22 in1023.4 mb - 0.00 in0.0 mm 0.00 in0.0 mm
06:10 AM 45.8°F7.7°C 43.0°F6.1°C 90% 2.3 mph SE3.7 kmh SE 3.5 mph5.6 kmh 30.22 in1023.4 mb - 0.00 in0.0 mm 0.00 in0.0 mm
06:00 AM 45.7°F7.6°C 42.7°F5.9°C 89% 1.2 mph S1.9 kmh S 2.3 mph3.7 kmh 30.22 in1023.4 mb - 0.00 in0.0 mm 0.00 in0.0 mm
05:55 AM 45.7°F7.6°C 42.6°F5.9°C 89% 3.5 mph SE5.6 kmh SE 4.6 mph7.4 kmh 30.22 in1023.4 mb - 0.00 in0.0 mm 0.00 in0.0 mm
05:50 AM 45.6°F7.6°C 42.6°F5.9°C 89% 2.3 mph SE3.7 kmh SE 3.5 mph5.6 kmh 30.22 in1023.4 mb - 0.00 in0.0 mm 0.00 in0.0 mm
05:45 AM 45.6°F7.6°C 42.5°F5.8°C 89% 1.2 mph SE1.9 kmh SE 3.5 mph5.6 kmh 30.22 in1023.4 mb - 0.00 in0.0 mm 0.00 in0.0 mm
05:40 AM 45.6°F7.6°C 42.5°F5.8°C 89% 2.3 mph SE3.7 kmh SE 3.5 mph5.6 kmh 30.22 in1023.4 mb - 0.00 in0.0 mm 0.00 in0.0 mm
05:35 AM 45.6°F7.6°C 42.5°F5.8°C 89% 2.3 mph SE3.7 kmh SE 3.5 mph5.6 kmh 30.22 in1023.4 mb - 0.00 in0.0 mm 0.00 in0.0 mm
05:30 AM 45.6°F7.6°C 42.5°F5.8°C 89% 2.3 mph SE3.7 kmh SE 3.5 mph5.6 kmh 30.22 in1023.4 mb - 0.00 in0.0 mm 0.00 in0.0 mm
05:25 AM 45.6°F7.6°C 42.5°F5.8°C 89% 3.5 mph SE5.6 kmh SE 3.5 mph5.6 kmh 30.22 in1023.4 mb - 0.00 in0.0 mm 0.00 in0.0 mm
05:20 AM 45.6°F7.6°C 42.5°F5.8°C 89% 3.5 mph SSE5.6 kmh SSE 3.5 mph5.6 kmh 30.22 in1023.4 mb - 0.00 in0.0 mm 0.00 in0.0 mm
05:15 AM 45.6°F7.6°C 42.5°F5.8°C 89% 4.6 mph SSE7.4 kmh SSE 8.1 mph13.0 kmh 30.22 in1023.4 mb - 0.00 in0.0 mm 0.00 in0.0 mm
05:10 AM 45.5°F7.5°C 42.5°F5.8°C 89% 4.6 mph SE7.4 kmh SE 9.2 mph14.8 kmh 30.21 in1023.0 mb - 0.00 in0.0 mm 0.00 in0.0 mm
05:00 AM 45.4°F7.4°C 42.3°F5.7°C 89% 3.5 mph SE5.6 kmh SE 5.8 mph9.3 kmh 30.22 in1023.4 mb - 0.00 in0.0 mm 0.00 in0.0 mm
04:55 AM 45.4°F7.4°C 42.1°F5.6°C 88% 4.6 mph SE7.4 kmh SE 9.2 mph14.8 kmh 30.22 in1023.4 mb - 0.00 in0.0 mm 0.00 in0.0 mm
04:50 AM 45.5°F7.5°C 42.2°F5.7°C 88% 4.6 mph SE7.4 kmh SE 9.2 mph14.8 kmh 30.22 in1023.4 mb - 0.00 in0.0 mm 0.00 in0.0 mm
04:45 AM 45.8°F7.7°C 42.4°F5.8°C 88% 3.5 mph SE5.6 kmh SE 5.8 mph9.3 kmh 30.22 in1023.4 mb - 0.00 in0.0 mm 0.00 in0.0 mm
04:40 AM 45.8°F7.7°C 42.4°F5.8°C 88% 2.3 mph SE3.7 kmh SE 4.6 mph7.4 kmh 30.22 in1023.4 mb - 0.00 in0.0 mm 0.00 in0.0 mm
04:35 AM 45.8°F7.7°C 42.4°F5.8°C 88% 3.5 mph SE5.6 kmh SE 5.8 mph9.3 kmh 30.22 in1023.4 mb - 0.00 in0.0 mm 0.00 in0.0 mm
04:30 AM 45.9°F7.7°C 42.5°F5.8°C 88% 3.5 mph SE5.6 kmh SE 5.8 mph9.3 kmh 30.22 in1023.4 mb - 0.00 in0.0 mm 0.00 in0.0 mm
04:25 AM 46.0°F7.8°C 42.6°F5.9°C 88% 3.5 mph SE5.6 kmh SE 4.6 mph7.4 kmh 30.22 in1023.4 mb - 0.00 in0.0 mm 0.00 in0.0 mm
04:20 AM 46.1°F7.8°C 42.7°F5.9°C 88% 4.6 mph SE7.4 kmh SE 8.1 mph13.0 kmh 30.23 in1023.7 mb - 0.00 in0.0 mm 0.00 in0.0 mm
04:15 AM 46.1°F7.8°C 42.7°F5.9°C 88% 5.8 mph SE9.3 kmh SE 9.2 mph14.8 kmh 30.23 in1023.7 mb - 0.00 in0.0 mm 0.00 in0.0 mm
04:10 AM 46.2°F7.9°C 42.8°F6.0°C 88% 3.5 mph SE5.6 kmh SE 5.8 mph9.3 kmh 30.23 in1023.7 mb - 0.00 in0.0 mm 0.00 in0.0 mm
04:00 AM 46.3°F7.9°C 42.6°F5.9°C 87% 5.8 mph SE9.3 kmh SE 12.7 mph20.4 kmh 30.23 in1023.7 mb - 0.00 in0.0 mm 0.00 in0.0 mm
03:55 AM 46.5°F8.1°C 42.8°F6.0°C 87% 3.5 mph SE5.6 kmh SE 3.5 mph5.6 kmh 30.23 in1023.7 mb - 0.00 in0.0 mm 0.00 in0.0 mm
03:50 AM 46.7°F8.2°C 43.0°F6.1°C 87% 4.6 mph SE7.4 kmh SE 5.8 mph9.3 kmh 30.23 in1023.7 mb - 0.00 in0.0 mm 0.00 in0.0 mm
03:45 AM 46.7°F8.2°C 43.1°F6.2°C 87% 3.5 mph ESE5.6 kmh ESE 3.5 mph5.6 kmh 30.23 in1023.7 mb - 0.00 in0.0 mm 0.00 in0.0 mm
03:40 AM 46.8°F8.2°C 43.1°F6.2°C 87% 4.6 mph SE7.4 kmh SE 6.9 mph11.1 kmh 30.23 in1023.7 mb - 0.00 in0.0 mm 0.00 in0.0 mm
03:35 AM 46.8°F8.2°C 43.1°F6.2°C 87% 3.5 mph SE5.6 kmh SE 8.1 mph13.0 kmh 30.23 in1023.7 mb - 0.00 in0.0 mm 0.00 in0.0 mm
03:30 AM 46.9°F8.3°C 43.2°F6.2°C 87% 4.6 mph SE7.4 kmh SE 6.9 mph11.1 kmh 30.24 in1024.0 mb - 0.00 in0.0 mm 0.00 in0.0 mm
03:25 AM 46.8°F8.2°C 42.8°F6.0°C 86% 3.5 mph SE5.6 kmh SE 9.2 mph14.8 kmh 30.24 in1024.0 mb - 0.00 in0.0 mm 0.00 in0.0 mm
03:20 AM 46.8°F8.2°C 42.8°F6.0°C 86% 3.5 mph SE5.6 kmh SE 9.2 mph14.8 kmh 30.24 in1024.0 mb - 0.00 in0.0 mm 0.00 in0.0 mm
03:15 AM 46.7°F8.2°C 42.7°F5.9°C 86% 4.6 mph SE7.4 kmh SE 8.1 mph13.0 kmh 30.24 in1024.0 mb - 0.00 in0.0 mm 0.00 in0.0 mm
03:10 AM 46.7°F8.2°C 42.8°F6.0°C 86% 4.6 mph SE7.4 kmh SE 3.5 mph5.6 kmh 30.24 in1024.0 mb - 0.00 in0.0 mm 0.00 in0.0 mm
03:00 AM 46.7°F8.2°C 42.4°F5.8°C 85% 3.5 mph SE5.6 kmh SE 4.6 mph7.4 kmh 30.25 in1024.4 mb - 0.00 in0.0 mm 0.00 in0.0 mm
02:55 AM 46.7°F8.2°C 42.4°F5.8°C 85% 2.3 mph SE3.7 kmh SE 4.6 mph7.4 kmh 30.25 in1024.4 mb - 0.00 in0.0 mm 0.00 in0.0 mm
02:50 AM 46.7°F8.2°C 42.4°F5.8°C 85% 2.3 mph SE3.7 kmh SE 4.6 mph7.4 kmh 30.25 in1024.4 mb - 0.00 in0.0 mm 0.00 in0.0 mm
02:45 AM 46.8°F8.2°C 42.5°F5.8°C 85% 4.6 mph SE7.4 kmh SE 6.9 mph11.1 kmh 30.25 in1024.4 mb - 0.00 in0.0 mm 0.00 in0.0 mm
02:40 AM 46.8°F8.2°C 42.5°F5.8°C 85% 3.5 mph SE5.6 kmh SE 5.8 mph9.3 kmh 30.25 in1024.4 mb - 0.00 in0.0 mm 0.00 in0.0 mm
02:35 AM 46.7°F8.2°C 42.4°F5.8°C 85% 3.5 mph SE5.6 kmh SE 4.6 mph7.4 kmh 30.25 in1024.4 mb - 0.00 in0.0 mm 0.00 in0.0 mm
02:30 AM 46.7°F8.2°C 42.4°F5.8°C 85% 3.5 mph SE5.6 kmh SE 5.8 mph9.3 kmh 30.25 in1024.4 mb - 0.00 in0.0 mm 0.00 in0.0 mm
02:25 AM 46.7°F8.2°C 42.1°F5.6°C 84% 3.5 mph SE5.6 kmh SE 8.1 mph13.0 kmh 30.25 in1024.4 mb - 0.00 in0.0 mm 0.00 in0.0 mm
02:20 AM 46.7°F8.2°C 42.1°F5.6°C 84% 3.5 mph SE5.6 kmh SE 3.5 mph5.6 kmh 30.25 in1024.4 mb - 0.00 in0.0 mm 0.00 in0.0 mm
02:15 AM 46.6°F8.1°C 42.0°F5.6°C 84% 2.3 mph SE3.7 kmh SE 5.8 mph9.3 kmh 30.25 in1024.4 mb - 0.00 in0.0 mm 0.00 in0.0 mm
02:10 AM 46.6°F8.1°C 42.0°F5.6°C 84% 3.5 mph SE5.6 kmh SE 3.5 mph5.6 kmh 30.24 in1024.0 mb - 0.00 in0.0 mm 0.00 in0.0 mm
02:00 AM 46.7°F8.2°C 42.1°F5.6°C 84% 2.3 mph SE3.7 kmh SE 3.5 mph5.6 kmh 30.25 in1024.4 mb - 0.00 in0.0 mm 0.00 in0.0 mm
01:55 AM 46.7°F8.2°C 42.1°F5.6°C 84% 4.6 mph SE7.4 kmh SE 6.9 mph11.1 kmh 30.25 in1024.4 mb - 0.00 in0.0 mm 0.00 in0.0 mm
01:50 AM 46.7°F8.2°C 41.8°F5.4°C 83% 4.6 mph SE7.4 kmh SE 6.9 mph11.1 kmh 30.25 in1024.4 mb - 0.00 in0.0 mm 0.00 in0.0 mm
01:45 AM 46.7°F8.2°C 41.8°F5.4°C 83% 4.6 mph SE7.4 kmh SE 9.2 mph14.8 kmh 30.25 in1024.4 mb - 0.00 in0.0 mm 0.00 in0.0 mm
01:40 AM 46.8°F8.2°C 41.9°F5.5°C 83% 3.5 mph SE5.6 kmh SE 3.5 mph5.6 kmh 30.25 in1024.4 mb - 0.00 in0.0 mm 0.00 in0.0 mm
01:35 AM 46.7°F8.2°C 41.9°F5.5°C 83% 3.5 mph SE5.6 kmh SE 6.9 mph11.1 kmh 30.25 in1024.4 mb - 0.00 in0.0 mm 0.00 in0.0 mm
01:30 AM 46.8°F8.2°C 41.9°F5.5°C 83% 3.5 mph SE5.6 kmh SE 4.6 mph7.4 kmh 30.25 in1024.4 mb - 0.00 in0.0 mm 0.00 in0.0 mm
01:25 AM 46.7°F8.2°C 41.8°F5.4°C 83% 2.3 mph ESE3.7 kmh ESE 6.9 mph11.1 kmh 30.25 in1024.4 mb - 0.00 in0.0 mm 0.00 in0.0 mm
01:20 AM 46.7°F8.2°C 41.8°F5.4°C 83% 2.3 mph SSE3.7 kmh SSE 3.5 mph5.6 kmh 30.25 in1024.4 mb - 0.00 in0.0 mm 0.00 in0.0 mm
01:15 AM 46.7°F8.2°C 41.8°F5.4°C 83% 4.6 mph SSE7.4 kmh SSE 4.6 mph7.4 kmh 30.25 in1024.4 mb - 0.00 in0.0 mm 0.00 in0.0 mm
01:10 AM 46.7°F8.2°C 41.8°F5.4°C 83% 3.5 mph SE5.6 kmh SE 4.6 mph7.4 kmh 30.25 in1024.4 mb - 0.00 in0.0 mm 0.00 in0.0 mm
01:00 AM 46.7°F8.2°C 41.5°F5.3°C 82% 3.5 mph SE5.6 kmh SE 3.5 mph5.6 kmh 30.25 in1024.4 mb - 0.00 in0.0 mm 0.00 in0.0 mm
12:55 AM 46.7°F8.2°C 41.5°F5.3°C 82% 2.3 mph SE3.7 kmh SE 3.5 mph5.6 kmh 30.25 in1024.4 mb - 0.00 in0.0 mm 0.00 in0.0 mm
12:50 AM 46.8°F8.2°C 41.6°F5.3°C 82% 4.6 mph SE7.4 kmh SE 5.8 mph9.3 kmh 30.25 in1024.4 mb - 0.00 in0.0 mm 0.00 in0.0 mm
12:45 AM 46.9°F8.3°C 41.7°F5.4°C 82% 4.6 mph SE7.4 kmh SE 9.2 mph14.8 kmh 30.25 in1024.4 mb - 0.00 in0.0 mm 0.00 in0.0 mm
12:40 AM 46.8°F8.2°C 41.6°F5.3°C 82% 2.3 mph SE3.7 kmh SE 3.5 mph5.6 kmh 30.25 in1024.4 mb - 0.00 in0.0 mm 0.00 in0.0 mm
12:35 AM 46.8°F8.2°C 41.6°F5.3°C 82% 3.5 mph SE5.6 kmh SE 4.6 mph7.4 kmh 30.25 in1024.4 mb - 0.00 in0.0 mm 0.00 in0.0 mm
12:30 AM 46.8°F8.2°C 41.6°F5.3°C 82% 2.3 mph SSE3.7 kmh SSE 3.5 mph5.6 kmh 30.25 in1024.4 mb - 0.00 in0.0 mm 0.00 in0.0 mm
12:25 AM 46.8°F8.2°C 41.6°F5.3°C 82% 4.6 mph SE7.4 kmh SE 5.8 mph9.3 kmh 30.25 in1024.4 mb - 0.00 in0.0 mm 0.00 in0.0 mm
12:20 AM 46.9°F8.3°C 41.7°F5.4°C 82% 4.6 mph SE7.4 kmh SE 5.8 mph9.3 kmh 30.25 in1024.4 mb - 0.00 in0.0 mm 0.00 in0.0 mm
12:15 AM 46.9°F8.3°C 41.4°F5.2°C 81% 4.6 mph SE7.4 kmh SE 8.1 mph13.0 kmh 30.26 in1024.7 mb - 0.00 in0.0 mm 0.00 in0.0 mm
12:10 AM 46.9°F8.3°C 41.4°F5.2°C 81% 4.6 mph SE7.4 kmh SE 5.8 mph9.3 kmh 30.26 in1024.7 mb - 0.00 in0.0 mm 0.00 in0.0 mm
12:00 AM 46.9°F8.3°C 41.4°F5.2°C 81% 3.5 mph SE5.6 kmh SE 4.6 mph7.4 kmh 30.26 in1024.7 mb - 0.00 in0.0 mm 0.00 in0.0 mm